Time;durP1;ratioP1;P1;durP2;ratioP2;P2;SDS_P1;SDS_P2;PMS_P1;PMS_P2;Temp;Humidity;BMP_temperature;BMP_pressure;BME280_temperature;BME280_humidity;BME280_pressure;Samples;Min_cycle;Max_cycle;Signal;HPM_P1;HPM_P2
2022/12/26 00:00:00;;;;;;;8.80;5.10;;;26.90;99.90;;;;;;5040232;28;20447;-86
2022/12/26 00:02:32;;;;;;;8.60;4.55;;;27.00;99.90;;;;;;5047676;28;20217;-86
2022/12/26 00:05:03;;;;;;;7.13;4.53;;;26.80;99.90;;;;;;5025913;28;20285;-85
2022/12/26 00:07:33;;;;;;;7.25;4.30;;;26.90;99.90;;;;;;5015084;28;20683;-85
2022/12/26 00:10:05;;;;;;;7.63;4.20;;;26.90;99.90;;;;;;5034014;28;20219;-84
2022/12/26 00:12:36;;;;;;;7.00;4.00;;;26.90;99.90;;;;;;5041779;28;20219;-84
2022/12/26 00:15:11;;;;;;;7.25;3.90;;;26.90;99.90;;;;;;5019986;28;20574;-84
2022/12/26 00:17:42;;;;;;;7.45;4.28;;;27.00;99.90;;;;;;5030802;28;20292;-83
2022/12/26 00:20:13;;;;;;;6.55;4.22;;;27.10;99.90;;;;;;5041300;28;20261;-83
2022/12/26 00:22:44;;;;;;;7.25;4.00;;;27.20;99.90;;;;;;5042492;28;20233;-82
2022/12/26 00:25:15;;;;;;;7.85;4.10;;;27.30;99.90;;;;;;5033170;28;20225;-85
2022/12/26 00:27:46;;;;;;;9.57;4.60;;;27.30;99.90;;;;;;5029675;28;20267;-82
2022/12/26 00:30:19;;;;;;;6.70;4.35;;;27.20;99.90;;;;;;5030845;28;20189;-82
2022/12/26 00:32:50;;;;;;;8.15;4.15;;;27.20;99.90;;;;;;5030570;28;20201;-82
2022/12/26 00:35:21;;;;;;;6.45;4.05;;;27.20;99.90;;;;;;5031043;28;20718;-83
2022/12/26 00:37:51;;;;;;;7.45;3.90;;;27.20;99.90;;;;;;5027467;28;20194;-83
2022/12/26 00:40:22;;;;;;;5.97;3.50;;;27.30;99.90;;;;;;5013256;28;20198;-83
2022/12/26 00:42:53;;;;;;;6.97;3.60;;;27.30;99.90;;;;;;5033411;28;20276;-82
2022/12/26 00:45:26;;;;;;;4.40;2.95;;;27.40;99.90;;;;;;5029487;28;20728;-82
2022/12/26 00:47:56;;;;;;;5.88;3.28;;;27.60;99.90;;;;;;5027104;28;20198;-84
2022/12/26 00:50:27;;;;;;;7.90;3.40;;;27.70;99.90;;;;;;5031125;28;20201;-83
2022/12/26 00:52:58;;;;;;;7.95;2.97;;;27.80;99.90;;;;;;5016806;28;20204;-84
2022/12/26 00:55:29;;;;;;;3.85;2.38;;;27.90;99.90;;;;;;5020213;28;20231;-84
2022/12/26 00:58:00;;;;;;;3.92;2.17;;;27.90;99.90;;;;;;5013001;28;20212;-85
2022/12/26 01:00:33;;;;;;;7.57;2.28;;;28.00;99.90;;;;;;5024593;28;20252;-82
2022/12/26 01:03:04;;;;;;;6.80;1.83;;;28.00;99.90;;;;;;5026939;28;20236;-85
2022/12/26 01:05:34;;;;;;;5.47;2.55;;;28.00;99.90;;;;;;5030019;28;20207;-84
2022/12/26 01:08:05;;;;;;;5.53;2.05;;;27.90;99.90;;;;;;5030957;28;20201;-84
2022/12/26 01:10:36;;;;;;;6.03;1.83;;;27.90;99.90;;;;;;5031240;28;20202;-84
2022/12/26 01:13:07;;;;;;;5.90;1.80;;;27.80;99.90;;;;;;5031712;28;20284;-84
2022/12/26 01:15:40;;;;;;;5.78;1.75;;;27.80;99.90;;;;;;5031747;28;20759;-84
2022/12/26 01:18:11;;;;;;;5.40;1.90;;;27.90;99.90;;;;;;5026923;28;20683;-84
2022/12/26 01:20:41;;;;;;;4.30;1.70;;;27.90;99.90;;;;;;5032575;28;20288;-84
2022/12/26 01:23:12;;;;;;;6.40;1.70;;;27.90;99.90;;;;;;5017166;28;20324;-83
2022/12/26 01:25:43;;;;;;;5.22;1.95;;;28.00;99.90;;;;;;5026579;28;20198;-83
2022/12/26 01:28:14;;;;;;;4.93;1.80;;;28.00;99.90;;;;;;5014370;28;20253;-84
2022/12/26 01:30:46;;;;;;;9.52;2.38;;;28.00;99.90;;;;;;5020469;28;20217;-83
2022/12/26 01:33:17;;;;;;;7.78;1.77;;;28.20;99.90;;;;;;5029858;28;20197;-83
2022/12/26 01:35:55;;;;;;;6.13;1.90;;;28.20;99.90;;;;;;5037786;28;20235;-83
2022/12/26 01:38:26;;;;;;;7.30;1.92;;;28.20;99.90;;;;;;5019960;28;20229;-82
2022/12/26 01:44:00;;;;;;;4.70;1.30;;;28.20;99.90;;;;;;5030756;28;20213;-83
2022/12/26 01:46:39;;;;;;;5.25;1.73;;;28.20;99.90;;;;;;5029441;28;20239;-83
2022/12/26 01:49:15;;;;;;;4.82;1.35;;;28.20;99.90;;;;;;5031001;28;20284;-83
2022/12/26 01:51:50;;;;;;;7.20;1.48;;;28.00;99.90;;;;;;5031279;28;20205;-83
2022/12/26 01:54:21;;;;;;;7.70;1.67;;;28.10;99.90;;;;;;5036720;28;20278;-83
2022/12/26 01:56:53;;;;;;;8.02;1.52;;;28.30;99.90;;;;;;5031737;28;20271;-83
2022/12/26 01:59:27;;;;;;;3.40;1.23;;;28.40;99.90;;;;;;5031267;28;20296;-83
2022/12/26 02:02:01;;;;;;;3.92;1.30;;;28.40;99.90;;;;;;5029446;28;20228;-84
2022/12/26 02:07:24;;;;;;;3.72;1.30;;;28.50;99.90;;;;;;5031263;28;20208;-83
2022/12/26 02:09:55;;;;;;;7.35;1.40;;;28.50;99.90;;;;;;5028619;28;20208;-82
2022/12/26 02:12:31;;;;;;;2.92;1.10;;;28.50;99.90;;;;;;5038721;28;20281;-83
2022/12/26 02:15:03;;;;;;;2.30;1.08;;;28.50;99.90;;;;;;5027630;28;20231;-85
2022/12/26 02:17:36;;;;;;;5.40;1.27;;;28.60;99.90;;;;;;5030362;28;20615;-83
2022/12/26 02:20:25;;;;;;;5.88;1.20;;;28.50;99.90;;;;;;5030074;28;20203;-83
2022/12/26 02:23:32;;;;;;;4.43;1.27;;;28.60;99.90;;;;;;5030954;28;20324;-83
2022/12/26 02:26:34;;;;;;;2.35;1.00;;;28.70;99.90;;;;;;5027889;28;20240;-84
2022/12/26 02:29:38;;;;;;;3.35;1.10;;;28.90;99.90;;;;;;5022304;28;20587;-83
2022/12/26 02:32:19;;;;;;;2.88;1.20;;;29.10;99.90;;;;;;5022038;28;20193;-83
2022/12/26 02:34:59;;;;;;;2.80;1.13;;;29.10;99.90;;;;;;5030379;28;20697;-84
2022/12/26 02:37:44;;;;;;;2.40;1.20;;;29.10;99.90;;;;;;5030338;28;20201;-82
2022/12/26 02:40:33;;;;;;;5.65;1.40;;;29.10;99.90;;;;;;5029421;28;20695;-83
2022/12/26 02:43:10;;;;;;;6.05;1.27;;;29.20;99.90;;;;;;5030418;28;20232;-82
2022/12/26 02:48:44;;;;;;;6.90;1.52;;;29.50;99.90;;;;;;5030388;28;20653;-83
2022/12/26 03:14:30;;;;;;;4.75;1.48;;;30.50;99.90;;;;;;5011998;28;20209;-83
2022/12/26 03:17:21;;;;;;;7.40;1.50;;;30.40;99.90;;;;;;5046042;28;20259;-84
2022/12/26 03:20:02;;;;;;;5.82;1.48;;;30.50;99.90;;;;;;5042260;28;20202;-84
2022/12/26 03:22:42;;;;;;;5.22;1.40;;;30.40;99.90;;;;;;5038769;28;20239;-83
2022/12/26 03:28:07;;;;;;;8.85;1.42;;;30.70;99.90;;;;;;5046454;28;20312;-84
2022/12/26 03:30:51;;;;;;;4.65;1.50;;;30.80;99.90;;;;;;5044933;28;20733;-84
2022/12/26 03:36:18;;;;;;;4.25;1.33;;;30.80;99.90;;;;;;5033433;28;20308;-83
2022/12/26 03:39:06;;;;;;;6.63;1.30;;;30.90;99.90;;;;;;5037254;28;20225;-84
2022/12/26 04:19:43;;;;;;;4.43;1.30;;;31.40;99.90;;;;;;5036669;28;20205;-84
2022/12/26 04:45:03;;;;;;;3.80;1.00;;;31.60;99.90;;;;;;5034966;28;20225;-87
2022/12/26 04:47:36;;;;;;;2.97;0.90;;;31.60;99.90;;;;;;5040138;28;20277;-86
2022/12/26 04:50:14;;;;;;;5.50;1.10;;;31.70;99.90;;;;;;5030013;28;20193;-86
2022/12/26 04:52:59;;;;;;;6.85;1.10;;;31.80;99.90;;;;;;5035092;28;20268;-86
2022/12/26 04:55:32;;;;;;;5.60;1.20;;;31.80;99.90;;;;;;5022143;28;20300;-87
2022/12/26 04:58:03;;;;;;;5.32;1.27;;;31.80;99.90;;;;;;5027886;28;20201;-86
2022/12/26 05:00:34;;;;;;;2.67;0.82;;;31.90;99.90;;;;;;5022737;28;20280;-86
2022/12/26 05:11:28;;;;;;;4.38;1.20;;;32.30;99.90;;;;;;5030702;28;20200;-86
2022/12/26 05:14:01;;;;;;;4.38;1.10;;;32.40;99.90;;;;;;5032827;28;20198;-86
2022/12/26 05:30:36;;;;;;;2.90;0.93;;;33.00;99.90;;;;;;5029791;28;20200;-87
2022/12/26 05:35:57;;;;;;;2.78;0.90;;;33.10;99.90;;;;;;5018236;28;20216;-86
2022/12/26 05:38:28;;;;;;;6.22;1.00;;;33.40;99.90;;;;;;5029140;28;20189;-86
2022/12/26 05:40:58;;;;;;;6.50;1.50;;;33.60;99.90;;;;;;5030645;28;20197;-85
2022/12/26 05:43:29;;;;;;;3.20;0.85;;;33.70;99.90;;;;;;5031770;28;20228;-85
2022/12/26 05:46:00;;;;;;;5.38;1.23;;;34.10;99.70;;;;;;5031543;28;20189;-85
2022/12/26 05:48:31;;;;;;;3.63;1.10;;;34.20;99.90;;;;;;5031091;28;20229;-85
2022/12/26 05:51:05;;;;;;;4.75;1.20;;;34.10;97.80;;;;;;5027914;28;20189;-87
2022/12/26 05:53:36;;;;;;;4.72;1.52;;;34.50;98.10;;;;;;5038977;28;20197;-87
2022/12/26 05:56:08;;;;;;;3.92;1.10;;;34.30;97.50;;;;;;5032559;28;20225;-87
2022/12/26 05:58:39;;;;;;;3.30;1.30;;;34.30;98.40;;;;;;5023442;28;20718;-87
2022/12/26 06:01:12;;;;;;;5.10;1.20;;;34.50;96.50;;;;;;5029378;28;20287;-86
2022/12/26 06:03:44;;;;;;;6.85;1.63;;;34.60;97.10;;;;;;5017988;28;20650;-86
2022/12/26 06:06:20;;;;;;;2.17;0.95;;;34.80;97.70;;;;;;5049205;28;20205;-86
2022/12/26 06:08:52;;;;;;;3.80;0.88;;;35.00;96.30;;;;;;5023932;28;20224;-86
2022/12/26 06:11:25;;;;;;;2.17;1.00;;;35.10;94.20;;;;;;5042095;28;20308;-86
2022/12/26 06:13:56;;;;;;;3.88;1.02;;;34.80;93.50;;;;;;5030976;28;20284;-86
2022/12/26 06:16:27;;;;;;;5.45;1.33;;;34.70;93.10;;;;;;5027692;28;20227;-86
2022/12/26 06:18:58;;;;;;;5.85;1.30;;;34.70;93.40;;;;;;5030842;28;20287;-85
2022/12/26 06:21:30;;;;;;;3.75;1.20;;;34.40;92.30;;;;;;5028975;28;20312;-86
2022/12/26 06:24:01;;;;;;;4.00;1.30;;;34.50;92.30;;;;;;5031319;28;20203;-86
2022/12/26 06:26:32;;;;;;;5.00;1.10;;;34.50;93.10;;;;;;5030554;28;20197;-86
2022/12/26 06:29:03;;;;;;;4.82;1.10;;;34.50;92.30;;;;;;5031135;28;20193;-86
2022/12/26 06:31:34;;;;;;;5.35;1.27;;;34.60;92.40;;;;;;5031603;28;20318;-86
2022/12/26 06:34:04;;;;;;;3.10;1.20;;;34.70;91.40;;;;;;5025332;28;20558;-85
2022/12/26 06:36:38;;;;;;;3.97;1.08;;;34.80;91.70;;;;;;5028403;28;20268;-85
2022/12/26 06:39:10;;;;;;;4.57;1.13;;;35.00;90.20;;;;;;5016715;28;20708;-86
2022/12/26 06:41:44;;;;;;;4.05;1.17;;;34.80;90.00;;;;;;5026215;28;20746;-86
2022/12/26 06:44:14;;;;;;;5.20;1.10;;;35.00;88.80;;;;;;5025319;28;20293;-84
2022/12/26 06:46:45;;;;;;;3.80;1.25;;;35.10;88.80;;;;;;5028650;28;20667;-85
2022/12/26 06:49:17;;;;;;;3.75;1.25;;;35.30;87.00;;;;;;5029585;28;20569;-84
2022/12/26 06:51:50;;;;;;;4.38;1.20;;;35.70;82.90;;;;;;5029078;28;20627;-85
2022/12/26 06:54:21;;;;;;;3.83;1.00;;;36.00;80.80;;;;;;5025455;28;20217;-86
2022/12/26 06:56:52;;;;;;;3.38;1.13;;;36.00;77.80;;;;;;5025044;28;20212;-84
2022/12/26 06:59:26;;;;;;;3.10;1.05;;;36.20;77.60;;;;;;5037482;28;20225;-85
2022/12/26 07:01:57;;;;;;;2.55;1.08;;;36.20;78.10;;;;;;5031517;28;20198;-85
2022/12/26 07:04:27;;;;;;;3.50;1.10;;;36.40;77.60;;;;;;5030311;28;20200;-85
2022/12/26 07:07:00;;;;;;;4.63;1.10;;;36.20;77.60;;;;;;5034166;28;20221;-86
2022/12/26 07:09:31;;;;;;;3.67;1.13;;;36.50;74.30;;;;;;5013005;28;20723;-86
2022/12/26 07:12:02;;;;;;;3.40;1.20;;;36.70;73.50;;;;;;5021920;28;20272;-83
2022/12/26 07:14:33;;;;;;;5.32;1.35;;;37.00;72.30;;;;;;5026924;28;20627;-83
2022/12/26 07:17:04;;;;;;;5.03;1.20;;;37.00;71.90;;;;;;5035251;28;20293;-85
2022/12/26 07:19:34;;;;;;;4.22;1.27;;;36.80;72.00;;;;;;5024916;28;20314;-84
2022/12/26 07:22:08;;;;;;;4.05;1.25;;;36.90;71.70;;;;;;5029897;28;20328;-83
2022/12/26 07:24:40;;;;;;;2.47;1.05;;;36.90;72.10;;;;;;5020943;28;20678;-85
2022/12/26 07:27:10;;;;;;;2.90;1.10;;;36.50;71.90;;;;;;5033099;28;20289;-84
2022/12/26 07:29:41;;;;;;;4.10;1.63;;;36.70;71.60;;;;;;5031413;28;20718;-85
2022/12/26 07:32:12;;;;;;;4.05;1.20;;;36.50;72.20;;;;;;5031066;28;20292;-85
2022/12/26 07:34:44;;;;;;;3.83;1.23;;;36.50;70.70;;;;;;5040823;28;20640;-84
2022/12/26 07:37:17;;;;;;;4.82;1.48;;;36.40;71.30;;;;;;5028297;28;20327;-84
2022/12/26 07:39:48;;;;;;;3.30;1.27;;;36.30;70.80;;;;;;5023280;28;20213;-85
2022/12/26 07:42:21;;;;;;;3.90;1.20;;;36.30;70.30;;;;;;5034779;28;20200;-86
2022/12/26 07:44:52;;;;;;;3.65;1.10;;;36.40;69.00;;;;;;5033628;28;20706;-84
2022/12/26 07:47:23;;;;;;;3.40;1.02;;;36.30;68.60;;;;;;5034198;28;20304;-85
2022/12/26 07:49:54;;;;;;;3.42;1.10;;;36.40;68.60;;;;;;5022270;28;20289;-86
2022/12/26 07:52:27;;;;;;;4.80;1.10;;;36.10;68.10;;;;;;5029409;28;20355;-84
2022/12/26 07:54:57;;;;;;;3.53;1.05;;;35.90;69.30;;;;;;5052660;28;20240;-86
2022/12/26 07:57:28;;;;;;;6.68;1.00;;;35.80;68.30;;;;;;5052965;28;20212;-86
2022/12/26 08:00:00;;;;;;;4.97;1.23;;;35.50;69.80;;;;;;5038609;28;20225;-86
2022/12/26 08:02:31;;;;;;;5.20;2.00;;;35.30;70.30;;;;;;5035467;28;20204;-85
2022/12/26 08:05:02;;;;;;;4.72;1.40;;;34.90;72.00;;;;;;5032829;28;20206;-85
2022/12/26 08:07:34;;;;;;;2.92;1.25;;;34.40;73.90;;;;;;5031663;28;20309;-85
2022/12/26 08:10:08;;;;;;;3.75;1.80;;;33.80;76.20;;;;;;5026000;28;20586;-84
2022/12/26 08:12:38;;;;;;;3.95;1.60;;;33.10;79.10;;;;;;5031323;28;20211;-84
2022/12/26 08:15:11;;;;;;;7.03;2.60;;;32.50;82.40;;;;;;5023045;28;20251;-84
2022/12/26 08:17:42;;;;;;;3.90;1.73;;;32.00;85.80;;;;;;5017544;28;20233;-84
2022/12/26 08:20:14;;;;;;;6.03;2.28;;;31.30;90.50;;;;;;5025347;28;20220;-85
2022/12/26 08:22:47;;;;;;;5.05;1.63;;;30.70;93.60;;;;;;5021829;28;20238;-85
2022/12/26 08:25:18;;;;;;;6.53;1.80;;;30.20;96.70;;;;;;5022496;28;20756;-83
2022/12/26 08:27:49;;;;;;;4.63;1.52;;;30.00;98.80;;;;;;5022606;28;20217;-83
2022/12/26 08:30:20;;;;;;;5.63;1.20;;;29.70;99.90;;;;;;5023948;28;20225;-84
2022/12/26 08:32:52;;;;;;;5.15;1.50;;;29.40;99.90;;;;;;5025318;28;20294;-85
2022/12/26 08:35:23;;;;;;;6.38;1.30;;;28.90;99.90;;;;;;5024498;28;20305;-83
2022/12/26 08:37:56;;;;;;;4.65;1.17;;;28.80;99.90;;;;;;5020817;28;20619;-83
2022/12/26 08:40:27;;;;;;;5.45;1.38;;;28.60;99.90;;;;;;5013356;28;20194;-84
2022/12/26 08:42:58;;;;;;;2.95;1.20;;;28.40;99.90;;;;;;5021316;28;20305;-84
2022/12/26 08:45:28;;;;;;;4.22;1.38;;;28.20;99.90;;;;;;5029897;28;20638;-84
2022/12/26 08:48:01;;;;;;;6.38;1.30;;;28.00;99.90;;;;;;5026160;28;20220;-85
2022/12/26 08:50:32;;;;;;;6.93;1.08;;;27.90;99.90;;;;;;5019845;28;20625;-84
2022/12/26 08:53:05;;;;;;;4.85;1.30;;;27.80;99.90;;;;;;5029393;28;20225;-82
2022/12/26 08:55:36;;;;;;;8.82;1.60;;;27.70;99.90;;;;;;5023248;28;20200;-83
2022/12/26 08:58:06;;;;;;;5.30;1.30;;;27.50;99.90;;;;;;5019515;28;20197;-82
2022/12/26 09:00:37;;;;;;;4.90;1.35;;;27.30;99.90;;;;;;5028166;28;20225;-82
2022/12/26 09:03:08;;;;;;;5.07;1.58;;;27.20;99.90;;;;;;5024717;28;20221;-82
2022/12/26 09:05:39;;;;;;;6.05;1.30;;;27.20;99.90;;;;;;5027677;28;20561;-83
2022/12/26 09:08:12;;;;;;;6.80;1.40;;;27.20;99.90;;;;;;5020174;28;20223;-83
2022/12/26 09:10:43;;;;;;;5.35;1.23;;;27.20;99.90;;;;;;5031711;28;20281;-84
2022/12/26 09:13:13;;;;;;;7.63;1.52;;;27.10;99.90;;;;;;5024765;28;20198;-86
2022/12/26 09:15:44;;;;;;;3.80;1.30;;;27.10;99.90;;;;;;5030657;28;20208;-86
2022/12/26 09:18:15;;;;;;;7.68;1.60;;;26.90;99.90;;;;;;5019794;28;20217;-86
2022/12/26 09:20:47;;;;;;;5.20;1.40;;;26.90;99.90;;;;;;5027933;28;20228;-85
2022/12/26 09:23:19;;;;;;;8.02;1.40;;;26.80;99.90;;;;;;5033896;28;20193;-85
2022/12/26 09:25:51;;;;;;;7.95;1.58;;;26.70;99.90;;;;;;5022083;28;20194;-85
2022/12/26 09:28:22;;;;;;;7.07;1.55;;;26.70;99.90;;;;;;5021504;28;20716;-85
2022/12/26 09:30:53;;;;;;;5.07;1.40;;;26.60;99.90;;;;;;5024008;28;20197;-85
2022/12/26 09:33:24;;;;;;;6.50;1.70;;;26.40;99.90;;;;;;5036057;28;20206;-86
2022/12/26 09:35:55;;;;;;;9.60;1.52;;;26.40;99.90;;;;;;5014622;28;20651;-87
2022/12/26 09:38:27;;;;;;;6.75;1.58;;;26.40;99.90;;;;;;5019966;28;20189;-87
2022/12/26 09:41:11;;;;;;;4.15;1.27;;;26.40;99.90;;;;;;5029504;28;20224;-86
2022/12/26 09:43:59;;;;;;;6.20;1.45;;;26.40;99.90;;;;;;5015081;28;20301;-83
2022/12/26 09:46:36;;;;;;;4.40;1.30;;;26.30;99.90;;;;;;5017499;28;20205;-84
2022/12/26 09:49:12;;;;;;;6.53;1.48;;;26.30;99.90;;;;;;5016245;28;20273;-83
2022/12/26 09:51:46;;;;;;;7.38;1.42;;;26.30;99.90;;;;;;5030435;28;20200;-84
2022/12/26 09:54:27;;;;;;;8.27;1.40;;;26.20;99.90;;;;;;5026631;28;20201;-83
2022/12/26 09:57:01;;;;;;;6.85;1.60;;;26.20;99.90;;;;;;5028461;28;20319;-83
2022/12/26 09:59:36;;;;;;;5.03;1.40;;;26.20;99.90;;;;;;5029443;28;20208;-83
2022/12/26 10:02:12;;;;;;;4.88;1.33;;;26.10;99.90;;;;;;5025851;28;20184;-81
2022/12/26 10:04:43;;;;;;;5.38;1.35;;;26.10;99.90;;;;;;5039697;28;20299;-82
2022/12/26 10:07:22;;;;;;;6.40;1.60;;;26.00;99.90;;;;;;5029000;28;20615;-84
2022/12/26 10:10:14;;;;;;;7.10;1.83;;;26.10;99.90;;;;;;5029772;28;20196;-83
2022/12/26 10:12:56;;;;;;;5.18;1.27;;;26.10;99.90;;;;;;5030633;28;20197;-83
2022/12/26 10:15:43;;;;;;;7.35;1.63;;;26.00;99.90;;;;;;5029813;28;20276;-83
2022/12/26 10:18:26;;;;;;;7.50;1.35;;;25.80;99.90;;;;;;5014731;28;20209;-85
2022/12/26 10:24:07;;;;;;;6.15;1.42;;;25.70;99.90;;;;;;5040376;28;20366;-82
2022/12/26 10:26:43;;;;;;;6.97;1.50;;;25.80;99.90;;;;;;5037725;28;20635;-85
2022/12/26 10:29:23;;;;;;;6.20;1.38;;;25.70;99.90;;;;;;5032843;28;20478;-86
2022/12/26 10:31:57;;;;;;;4.78;1.30;;;25.70;99.90;;;;;;5022840;28;20200;-85
2022/12/26 10:34:46;;;;;;;8.93;1.30;;;25.70;99.90;;;;;;5020368;28;20255;-85
2022/12/26 10:37:24;;;;;;;6.05;1.20;;;25.70;99.90;;;;;;5030772;28;20231;-86
2022/12/26 10:40:00;;;;;;;4.88;1.35;;;25.60;99.90;;;;;;5033123;28;20189;-85
2022/12/26 10:42:40;;;;;;;5.82;1.25;;;25.60;99.90;;;;;;5036879;28;20258;-86
2022/12/26 10:45:19;;;;;;;6.13;1.30;;;25.50;99.90;;;;;;5020801;28;20251;-85
2022/12/26 10:47:53;;;;;;;6.15;1.25;;;25.50;99.90;;;;;;5021632;28;20198;-86
2022/12/26 10:50:27;;;;;;;6.43;1.27;;;25.40;99.90;;;;;;5037382;28;20213;-85
2022/12/26 10:55:53;;;;;;;8.23;1.70;;;25.30;99.90;;;;;;5032290;28;20204;-87
2022/12/26 10:58:34;;;;;;;5.18;1.27;;;25.40;99.90;;;;;;5037289;28;20281;-87
2022/12/26 11:01:34;;;;;;;5.70;1.30;;;25.30;99.90;;;;;;5036351;28;20212;-86
2022/12/26 11:04:17;;;;;;;3.78;1.40;;;25.30;99.90;;;;;;5046154;28;20221;-85
2022/12/26 11:06:59;;;;;;;9.00;1.80;;;25.30;99.90;;;;;;5036324;28;20193;-86
2022/12/26 11:12:26;;;;;;;8.85;1.70;;;25.20;99.90;;;;;;5038908;28;20247;-86
2022/12/26 11:15:04;;;;;;;4.40;1.15;;;25.20;99.90;;;;;;5029638;28;20237;-86
2022/12/26 11:17:41;;;;;;;6.65;1.38;;;25.20;99.90;;;;;;5030724;28;20307;-83
2022/12/26 11:20:28;;;;;;;8.93;1.45;;;25.20;99.90;;;;;;5034967;28;20221;-86
2022/12/26 11:23:23;;;;;;;5.38;1.35;;;25.10;99.90;;;;;;5035686;28;20244;-85
2022/12/26 11:25:58;;;;;;;9.07;1.80;;;25.00;99.90;;;;;;5035182;28;20204;-84
2022/12/26 11:28:35;;;;;;;6.18;1.45;;;25.00;99.90;;;;;;5035863;28;20255;-85
2022/12/26 11:31:22;;;;;;;8.52;1.40;;;24.90;99.90;;;;;;5030594;28;20197;-84
2022/12/26 11:33:53;;;;;;;6.65;1.48;;;24.90;99.90;;;;;;5028485;28;20198;-83
2022/12/26 11:36:27;;;;;;;4.55;1.20;;;24.90;99.90;;;;;;5036195;28;20204;-83
2022/12/26 11:39:02;;;;;;;6.57;1.60;;;24.90;99.90;;;;;;5029611;28;20250;-85
2022/12/26 11:41:41;;;;;;;7.70;1.30;;;24.90;99.90;;;;;;5035766;28;20193;-85
2022/12/26 11:44:23;;;;;;;8.43;1.65;;;24.90;99.90;;;;;;5031838;28;20197;-85
2022/12/26 11:47:01;;;;;;;7.28;1.67;;;24.90;99.90;;;;;;5027047;28;20221;-85
2022/12/26 11:49:37;;;;;;;6.82;1.60;;;24.80;99.90;;;;;;5028505;28;20264;-85
2022/12/26 11:52:38;;;;;;;6.20;1.52;;;24.80;99.90;;;;;;5031129;28;20196;-85
2022/12/26 11:55:31;;;;;;;7.53;1.55;;;24.90;99.90;;;;;;5030676;28;20197;-85
2022/12/26 11:58:05;;;;;;;5.15;1.42;;;24.80;99.90;;;;;;5029239;28;20225;-85
2022/12/26 12:00:37;;;;;;;5.43;1.40;;;24.70;99.90;;;;;;5050343;28;20190;-88
2022/12/26 12:03:15;;;;;;;7.45;1.55;;;24.70;99.90;;;;;;5041581;28;20624;-85
2022/12/26 12:05:53;;;;;;;7.00;1.58;;;24.70;99.90;;;;;;5041512;28;20251;-85
2022/12/26 12:08:47;;;;;;;5.78;1.60;;;24.70;99.90;;;;;;5039100;28;20724;-86
2022/12/26 12:11:26;;;;;;;6.10;1.55;;;24.60;99.90;;;;;;5035771;28;20263;-86
2022/12/26 12:14:20;;;;;;;6.22;1.27;;;24.60;99.90;;;;;;5029588;28;20203;-85
2022/12/26 12:17:03;;;;;;;7.40;1.35;;;24.60;99.90;;;;;;5007970;28;20229;-86
2022/12/26 12:19:48;;;;;;;4.00;1.00;;;24.60;99.90;;;;;;5018699;28;20205;-85
2022/12/26 12:22:54;;;;;;;6.97;1.50;;;24.60;99.90;;;;;;5016552;28;20232;-85
2022/12/26 12:25:49;;;;;;;6.47;1.45;;;24.50;99.90;;;;;;5015853;28;20213;-85
2022/12/26 12:28:51;;;;;;;6.43;1.40;;;24.60;99.90;;;;;;5020912;28;20232;-86
2022/12/26 12:31:32;;;;;;;5.00;1.50;;;24.50;99.90;;;;;;5027075;28;20193;-85
2022/12/26 12:34:15;;;;;;;7.45;1.35;;;24.50;99.90;;;;;;5028593;28;20202;-83
2022/12/26 12:37:02;;;;;;;6.18;1.55;;;24.50;99.90;;;;;;5035984;28;20270;-84
2022/12/26 12:39:43;;;;;;;6.32;1.50;;;24.60;99.90;;;;;;5031653;28;20229;-84
2022/12/26 12:42:35;;;;;;;7.35;1.45;;;24.50;99.90;;;;;;5033332;28;20192;-84
2022/12/26 12:45:27;;;;;;;7.30;1.55;;;24.50;99.90;;;;;;5033883;28;20284;-84
2022/12/26 12:48:34;;;;;;;7.97;1.60;;;24.50;99.90;;;;;;5037498;28;20190;-84
2022/12/26 12:51:16;;;;;;;7.43;1.50;;;24.50;99.90;;;;;;5032529;28;20296;-85
2022/12/26 12:54:06;;;;;;;8.52;1.33;;;24.50;99.90;;;;;;5039130;28;20288;-85
2022/12/26 12:56:45;;;;;;;5.22;1.20;;;24.40;99.90;;;;;;5035077;28;20197;-85
2022/12/26 12:59:30;;;;;;;7.20;1.35;;;24.30;99.90;;;;;;5035239;28;20201;-82
2022/12/26 13:02:06;;;;;;;8.75;1.52;;;24.30;99.90;;;;;;5035293;28;20614;-84
2022/12/26 13:04:40;;;;;;;7.22;1.42;;;24.30;99.90;;;;;;5030134;28;20227;-84
2022/12/26 13:07:16;;;;;;;7.50;1.38;;;24.20;99.90;;;;;;5031158;28;20292;-85
2022/12/26 13:09:53;;;;;;;10.82;1.52;;;24.20;99.90;;;;;;5032434;28;21125;-84
2022/12/26 13:12:27;;;;;;;6.95;1.25;;;24.20;99.90;;;;;;5033395;28;20205;-84
2022/12/26 13:15:01;;;;;;;6.65;1.40;;;24.20;99.90;;;;;;5027840;28;20284;-85
2022/12/26 13:17:37;;;;;;;6.22;1.65;;;24.20;99.90;;;;;;5034723;28;20596;-85
2022/12/26 13:20:16;;;;;;;9.13;1.50;;;24.20;99.90;;;;;;5031745;28;20271;-85
2022/12/26 13:25:44;;;;;;;5.97;1.35;;;24.20;99.90;;;;;;5025467;28;20276;-84
2022/12/26 13:28:19;;;;;;;7.43;1.35;;;24.20;99.90;;;;;;5025795;28;21007;-83
2022/12/26 13:30:55;;;;;;;6.03;1.50;;;24.10;99.90;;;;;;5004603;28;20200;-83
2022/12/26 13:33:27;;;;;;;6.40;1.25;;;24.20;99.90;;;;;;5007899;28;20204;-83
2022/12/26 13:36:00;;;;;;;8.02;1.75;;;24.20;99.90;;;;;;5006565;28;20336;-83
2022/12/26 13:39:12;;;;;;;8.52;1.40;;;24.20;99.90;;;;;;5003221;28;22405;-83
2022/12/26 13:44:41;;;;;;;5.60;1.15;;;24.10;99.90;;;;;;5005471;28;20343;-84
2022/12/26 13:47:36;;;;;;;5.00;1.15;;;24.10;99.90;;;;;;5005292;28;20702;-83
2022/12/26 13:50:44;;;;;;;8.93;1.60;;;24.10;99.90;;;;;;5012404;28;20884;-82
2022/12/26 13:53:31;;;;;;;5.00;1.33;;;24.00;99.90;;;;;;5005165;28;20231;-82
2022/12/26 13:56:04;;;;;;;5.55;1.30;;;24.00;99.90;;;;;;5008109;28;20288;-82
2022/12/26 13:58:50;;;;;;;6.25;1.23;;;24.00;99.90;;;;;;5005145;28;20235;-83
2022/12/26 14:01:35;;;;;;;7.57;1.70;;;24.00;99.90;;;;;;5017511;28;20327;-84
2022/12/26 14:04:26;;;;;;;5.40;1.20;;;24.00;99.90;;;;;;5003169;28;20201;-83
2022/12/26 14:07:20;;;;;;;7.30;1.50;;;23.90;99.90;;;;;;5002444;28;20288;-83
2022/12/26 14:10:10;;;;;;;4.85;1.40;;;24.00;99.90;;;;;;5003652;28;20202;-83
2022/12/26 14:13:02;;;;;;;5.57;1.38;;;23.90;99.90;;;;;;5003237;28;20198;-83
2022/12/26 14:15:49;;;;;;;6.03;1.38;;;23.90;99.90;;;;;;5003064;28;20673;-82
2022/12/26 14:18:39;;;;;;;6.38;1.35;;;23.80;99.90;;;;;;5003626;28;20236;-83
2022/12/26 14:21:28;;;;;;;5.35;1.25;;;23.80;99.90;;;;;;5002754;28;20244;-83
2022/12/26 14:24:05;;;;;;;5.35;1.30;;;23.70;99.90;;;;;;5001859;28;20197;-82
2022/12/26 14:26:48;;;;;;;3.97;1.20;;;23.70;99.90;;;;;;5007983;28;20293;-83
2022/12/26 14:29:29;;;;;;;3.65;1.10;;;23.70;99.90;;;;;;5007566;28;20225;-83
2022/12/26 14:32:18;;;;;;;7.07;1.55;;;23.70;99.90;;;;;;5001021;28;20212;-83
2022/12/26 14:35:01;;;;;;;5.82;1.33;;;23.70;99.90;;;;;;5003485;28;20208;-84
2022/12/26 14:37:42;;;;;;;5.47;1.27;;;23.70;99.90;;;;;;5003348;28;20213;-83
2022/12/26 14:40:33;;;;;;;5.10;1.17;;;23.70;99.90;;;;;;5004919;28;20209;-84
2022/12/26 14:43:23;;;;;;;6.32;1.27;;;23.60;99.90;;;;;;5002875;28;20219;-84
2022/12/26 14:45:56;;;;;;;5.28;1.42;;;23.60;99.90;;;;;;5002948;28;20217;-84
2022/12/26 14:49:03;;;;;;;5.88;1.45;;;23.60;99.90;;;;;;5004808;28;20197;-84
2022/12/26 14:51:42;;;;;;;7.32;1.60;;;23.50;99.90;;;;;;4981012;28;20214;-84
2022/12/26 14:54:38;;;;;;;5.43;1.52;;;23.50;99.90;;;;;;5000612;28;20212;-83
2022/12/26 14:57:48;;;;;;;6.20;1.50;;;23.50;99.90;;;;;;5005233;28;20198;-84
2022/12/26 15:00:33;;;;;;;6.13;1.48;;;23.50;99.90;;;;;;4981857;28;21158;-85
2022/12/26 15:03:38;;;;;;;8.07;1.60;;;23.60;99.90;;;;;;5005834;28;20683;-83
2022/12/26 15:06:48;;;;;;;8.27;1.50;;;23.50;99.90;;;;;;5003399;28;20636;-86
2022/12/26 15:09:50;;;;;;;7.75;1.75;;;23.50;99.90;;;;;;5003085;28;20204;-84
2022/12/26 15:12:51;;;;;;;5.60;1.52;;;23.50;99.90;;;;;;4983088;28;20205;-85
2022/12/26 15:15:53;;;;;;;6.28;1.23;;;23.40;99.90;;;;;;5005558;28;20200;-85
2022/12/26 15:18:58;;;;;;;7.13;1.52;;;23.40;99.90;;;;;;4996090;28;20228;-85
2022/12/26 15:22:02;;;;;;;6.57;1.75;;;23.40;99.90;;;;;;5006069;28;20702;-85
2022/12/26 15:25:03;;;;;;;5.38;1.40;;;23.50;99.90;;;;;;5002723;28;20201;-84
2022/12/26 15:28:09;;;;;;;3.83;1.05;;;23.40;99.90;;;;;;4980943;28;20217;-85
2022/12/26 15:30:58;;;;;;;6.35;1.30;;;23.40;99.90;;;;;;4984991;28;20202;-85
2022/12/26 15:33:35;;;;;;;7.55;1.50;;;23.40;99.90;;;;;;5004773;28;20663;-85
2022/12/26 15:36:08;;;;;;;4.13;1.30;;;23.40;99.90;;;;;;5004527;28;20237;-85
2022/12/26 15:38:49;;;;;;;6.72;1.10;;;23.40;99.90;;;;;;5007228;28;20306;-85
2022/12/26 15:41:28;;;;;;;5.05;1.17;;;23.40;99.90;;;;;;5010733;28;20695;-89
2022/12/26 15:44:18;;;;;;;6.05;1.40;;;23.40;99.90;;;;;;5014940;28;20190;-85
2022/12/26 15:47:00;;;;;;;7.90;1.58;;;23.40;99.90;;;;;;5027835;28;20188;-85
2022/12/26 15:49:47;;;;;;;7.10;1.42;;;23.30;99.90;;;;;;5029665;28;20218;-84
2022/12/26 15:52:26;;;;;;;6.25;1.38;;;23.30;99.90;;;;;;5025472;28;20264;-85
2022/12/26 15:55:24;;;;;;;4.28;1.05;;;23.30;99.90;;;;;;5032550;28;20215;-84
2022/12/26 15:58:01;;;;;;;4.53;1.23;;;23.30;99.90;;;;;;5015000;28;20218;-84
2022/12/26 16:00:34;;;;;;;5.35;1.35;;;23.30;99.90;;;;;;5033007;28;20275;-84